createdAt,value
2023-05-03T00:01:10.573Z,91.15
2023-05-03T00:03:40.285Z,92.23
2023-05-03T00:06:15.742Z,93.04
2023-05-03T00:08:46.013Z,94.29
2023-05-03T00:11:16.179Z,94.61
2023-05-03T00:13:46.249Z,95.49
2023-05-03T00:16:16.220Z,96.27
2023-05-03T00:18:47.794Z,95.72
2023-05-03T00:21:18.096Z,97.14
2023-05-03T00:23:48.198Z,98.48
2023-05-03T00:26:18.253Z,100.00
2023-05-03T00:28:48.048Z,100.00
2023-05-03T00:31:17.956Z,100.00
2023-05-03T00:33:50.443Z,99.53
2023-05-03T00:36:20.453Z,99.41
2023-05-03T00:38:50.323Z,97.67
2023-05-03T00:41:20.434Z,96.22
2023-05-03T00:43:50.468Z,95.20
2023-05-03T00:46:20.849Z,95.56
2023-05-03T00:48:51.787Z,96.09
2023-05-03T00:51:23.691Z,96.56
2023-05-03T00:53:52.024Z,95.96
2023-05-03T00:56:23.980Z,96.06
2023-05-03T00:58:53.953Z,96.55
2023-05-03T01:01:24.322Z,96.19
2023-05-03T01:03:54.505Z,96.57
2023-05-03T01:06:39.349Z,97.61
2023-05-03T01:09:50.426Z,99.90
2023-05-03T01:12:54.341Z,100.00
2023-05-03T01:16:16.991Z,100.00
2023-05-03T01:18:51.974Z,100.00
2023-05-03T01:21:24.240Z,100.00
2023-05-03T01:24:19.174Z,100.00
2023-05-03T01:26:47.178Z,100.00
2023-05-03T01:29:15.855Z,100.00
2023-05-03T01:32:19.437Z,100.00
2023-05-03T01:35:21.011Z,100.00
2023-05-03T01:37:52.779Z,100.00
2023-05-03T01:40:26.990Z,100.00
2023-05-03T01:42:59.873Z,100.00
2023-05-03T01:45:31.273Z,100.00
2023-05-03T01:48:01.638Z,100.00
2023-05-03T01:50:31.581Z,100.00
2023-05-03T01:53:02.135Z,100.00
2023-05-03T01:55:32.371Z,100.00
2023-05-03T01:58:01.048Z,100.00
2023-05-03T02:00:29.524Z,100.00
2023-05-03T02:02:58.493Z,100.00
2023-05-03T02:05:26.253Z,100.00
2023-05-03T02:07:54.714Z,100.00
2023-05-03T02:10:22.883Z,100.00
2023-05-03T02:12:51.553Z,100.00
2023-05-03T02:15:22.721Z,100.00
2023-05-03T02:17:51.396Z,100.00
2023-05-03T02:20:19.789Z,100.00
2023-05-03T02:22:47.989Z,100.00
2023-05-03T02:25:16.454Z,100.00
2023-05-03T02:27:44.880Z,100.00
2023-05-03T02:30:13.682Z,100.00
2023-05-03T02:32:41.939Z,100.00
2023-05-03T02:35:10.812Z,100.00
2023-05-03T02:37:38.720Z,100.00
2023-05-03T02:40:09.786Z,100.00
2023-05-03T02:42:40.950Z,100.00
2023-05-03T02:45:11.894Z,100.00
2023-05-03T02:47:42.206Z,100.00
2023-05-03T02:50:12.444Z,100.00
2023-05-03T02:52:42.625Z,100.00
2023-05-03T02:55:12.859Z,100.00
2023-05-03T02:57:43.316Z,100.00
2023-05-03T03:00:17.841Z,100.00
2023-05-03T03:02:48.186Z,100.00
2023-05-03T03:05:18.763Z,100.00
2023-05-03T03:07:49.064Z,100.00
2023-05-03T03:10:19.435Z,100.00
2023-05-03T03:12:49.933Z,100.00
2023-05-03T03:15:20.148Z,100.00
2023-05-03T03:17:50.304Z,100.00
2023-05-03T03:20:20.506Z,100.00
2023-05-03T03:22:50.718Z,100.00
2023-05-03T03:25:21.657Z,100.00
2023-05-03T03:27:51.848Z,100.00
2023-05-03T03:30:22.205Z,100.00
2023-05-03T03:32:50.456Z,100.00
2023-05-03T03:35:19.786Z,100.00
2023-05-03T03:37:47.402Z,100.00
2023-05-03T03:40:15.806Z,100.00
2023-05-03T03:42:44.441Z,100.00
2023-05-03T03:45:13.184Z,100.00
2023-05-03T03:47:41.176Z,100.00
2023-05-03T03:50:10.355Z,100.00
2023-05-03T03:52:38.206Z,100.00
2023-05-03T03:55:07.752Z,100.00
2023-05-03T03:57:37.756Z,100.00
2023-05-03T04:00:11.946Z,100.00
2023-05-03T04:02:42.534Z,100.00
2023-05-03T04:05:12.976Z,100.00
2023-05-03T04:07:43.224Z,100.00
2023-05-03T04:10:13.353Z,100.00
2023-05-03T04:12:43.598Z,100.00
2023-05-03T04:15:14.143Z,100.00
2023-05-03T04:17:44.411Z,100.00
2023-05-03T04:20:14.729Z,100.00
2023-05-03T04:22:45.026Z,100.00
2023-05-03T04:25:15.243Z,100.00
2023-05-03T04:27:47.550Z,100.00
2023-05-03T04:30:18.283Z,100.00
2023-05-03T04:32:48.463Z,100.00
2023-05-03T04:35:18.894Z,100.00
2023-05-03T04:37:49.103Z,100.00
2023-05-03T04:40:19.938Z,100.00
2023-05-03T04:42:50.163Z,100.00
2023-05-03T04:45:21.166Z,100.00
2023-05-03T04:47:51.449Z,100.00
2023-05-03T04:50:21.728Z,100.00
2023-05-03T04:52:51.957Z,100.00
2023-05-03T04:55:22.326Z,100.00
2023-05-03T04:57:52.579Z,100.00
2023-05-03T05:00:23.852Z,100.00
2023-05-03T05:02:54.255Z,100.00
2023-05-03T05:05:24.449Z,100.00
2023-05-03T05:07:54.603Z,100.00
2023-05-03T05:10:24.938Z,100.00
2023-05-03T05:12:55.232Z,100.00
2023-05-03T05:15:25.330Z,100.00
2023-05-03T05:17:55.819Z,100.00
2023-05-03T05:20:26.696Z,100.00
2023-05-03T05:22:56.996Z,100.00
2023-05-03T05:25:27.460Z,100.00
2023-05-03T05:27:57.616Z,100.00
2023-05-03T05:30:27.726Z,100.00
2023-05-03T05:32:58.008Z,100.00
2023-05-03T05:35:28.486Z,100.00
2023-05-03T05:37:58.632Z,100.00
2023-05-03T05:40:28.733Z,95.73
2023-05-03T05:42:57.515Z,96.90
2023-05-03T05:45:25.925Z,95.79
2023-05-03T05:47:54.244Z,93.78
2023-05-03T05:50:23.029Z,92.11
2023-05-03T05:52:55.286Z,93.71
2023-05-03T05:55:25.607Z,91.30
2023-05-03T05:57:55.751Z,90.24
2023-05-03T06:00:26.332Z,89.69
2023-05-03T06:02:56.769Z,87.48
2023-05-03T06:05:27.060Z,85.87
2023-05-03T06:07:57.251Z,85.45
2023-05-03T06:10:27.422Z,82.72
2023-05-03T06:12:57.660Z,80.29
2023-05-03T06:15:27.946Z,82.24
2023-05-03T06:17:58.106Z,77.89
2023-05-03T06:20:28.310Z,78.54
2023-05-03T06:22:58.501Z,77.17
2023-05-03T06:25:28.758Z,75.54
2023-05-03T06:27:58.867Z,73.61
2023-05-03T06:30:28.928Z,73.37
2023-05-03T06:32:59.081Z,72.15
2023-05-03T06:35:29.648Z,69.19
2023-05-03T06:37:59.837Z,70.12
2023-05-03T06:40:29.968Z,67.98
2023-05-03T06:43:00.078Z,67.35
2023-05-03T06:45:30.219Z,66.29
2023-05-03T06:48:00.548Z,66.44
2023-05-03T06:50:30.961Z,61.63
2023-05-03T06:53:01.119Z,60.22
2023-05-03T06:55:33.172Z,61.85
2023-05-03T06:58:03.434Z,62.12
2023-05-03T07:00:33.683Z,60.29
2023-05-03T07:03:02.070Z,57.73
2023-05-03T07:05:30.650Z,59.23
2023-05-03T07:07:58.835Z,58.68
2023-05-03T07:10:31.254Z,57.54
2023-05-03T07:12:58.844Z,57.75
2023-05-03T07:15:27.293Z,55.48
2023-05-03T07:17:55.758Z,54.86
2023-05-03T07:20:24.217Z,54.44
2023-05-03T07:22:52.543Z,57.67
2023-05-03T07:25:21.057Z,53.80
2023-05-03T07:27:49.362Z,54.18
2023-05-03T07:30:18.380Z,54.22
2023-05-03T07:32:46.346Z,53.89
2023-05-03T07:35:15.636Z,53.36
2023-05-03T07:37:43.549Z,52.24
2023-05-03T07:40:12.467Z,50.11
2023-05-03T07:42:40.021Z,51.20
2023-05-03T07:45:09.353Z,51.16
2023-05-03T07:47:40.361Z,49.42
2023-05-03T07:50:10.918Z,50.67
2023-05-03T07:52:42.482Z,49.73
2023-05-03T07:55:12.793Z,48.80
2023-05-03T07:57:42.978Z,48.87
2023-05-03T08:00:15.032Z,48.95
2023-05-03T08:02:45.410Z,48.23
2023-05-03T08:05:15.963Z,46.30
2023-05-03T08:07:46.600Z,48.68
2023-05-03T08:10:16.980Z,51.11
2023-05-03T08:12:48.126Z,48.70
2023-05-03T08:15:18.406Z,48.53
2023-05-03T08:17:48.854Z,49.12
2023-05-03T08:20:19.003Z,49.59
2023-05-03T08:22:49.130Z,47.61
2023-05-03T08:25:19.803Z,48.70
2023-05-03T08:27:49.966Z,49.02
2023-05-03T08:30:22.321Z,49.71
2023-05-03T08:32:53.241Z,46.43
2023-05-03T08:35:23.434Z,50.12
2023-05-03T08:37:53.880Z,47.93
2023-05-03T08:40:28.326Z,47.30
2023-05-03T08:43:10.092Z,47.16
2023-05-03T08:45:40.240Z,46.38
2023-05-03T08:48:11.778Z,48.53
2023-05-03T08:50:42.927Z,45.94
2023-05-03T08:53:13.142Z,44.61
2023-05-03T08:55:44.689Z,44.78
2023-05-03T08:58:14.925Z,47.76
2023-05-03T09:00:45.469Z,45.08
2023-05-03T09:03:13.757Z,46.54
2023-05-03T09:05:44.516Z,44.92
2023-05-03T09:08:14.791Z,45.07
2023-05-03T09:10:45.168Z,42.99
2023-05-03T09:13:15.359Z,43.11
2023-05-03T09:15:58.463Z,46.05
2023-05-03T09:18:30.748Z,47.23
2023-05-03T09:21:00.865Z,45.06
2023-05-03T09:23:31.975Z,42.83
2023-05-03T09:32:06.803Z,45.64
2023-05-03T09:34:37.461Z,45.39
2023-05-03T09:37:07.729Z,44.21
2023-05-03T09:39:37.826Z,46.16
2023-05-03T09:42:26.054Z,42.07
2023-05-03T09:44:56.223Z,41.51
2023-05-03T09:47:26.121Z,41.19
2023-05-03T09:49:56.764Z,40.27
2023-05-03T09:52:31.085Z,40.36
2023-05-03T09:55:01.531Z,40.54
2023-05-03T09:57:33.676Z,41.67
2023-05-03T10:00:04.291Z,43.55
2023-05-03T10:02:35.148Z,45.25
2023-05-03T10:05:08.152Z,45.10
2023-05-03T10:07:43.350Z,47.10
2023-05-03T10:10:12.268Z,45.09
2023-05-03T10:12:41.987Z,46.97
2023-05-03T10:15:19.765Z,43.61
2023-05-03T10:17:58.171Z,45.33
2023-05-03T10:20:42.140Z,42.33
2023-05-03T10:23:14.579Z,44.16
2023-05-03T10:26:22.914Z,44.41
2023-05-03T10:28:53.023Z,43.54
2023-05-03T10:31:47.309Z,41.54
2023-05-03T10:34:26.056Z,44.96
2023-05-03T10:42:09.705Z,43.67
2023-05-03T10:44:56.026Z,44.70
2023-05-03T10:47:26.676Z,42.65
2023-05-03T10:50:26.108Z,42.78
2023-05-03T10:52:56.226Z,41.75
2023-05-03T10:55:28.185Z,39.90
2023-05-03T10:58:01.633Z,39.02
2023-05-03T11:00:44.692Z,40.10
2023-05-03T11:04:13.873Z,42.15
2023-05-03T11:06:46.313Z,42.25
2023-05-03T11:09:15.819Z,40.06
2023-05-03T11:11:43.970Z,44.76
2023-05-03T11:14:14.018Z,40.90
2023-05-03T11:16:51.259Z,42.60
2023-05-03T11:19:21.609Z,41.72
2023-05-03T11:21:52.436Z,42.78
2023-05-03T11:24:22.726Z,41.46
2023-05-03T11:26:52.904Z,40.55
2023-05-03T11:29:26.277Z,42.52
2023-05-03T11:31:56.683Z,41.46
2023-05-03T11:34:27.019Z,42.81
2023-05-03T11:36:59.878Z,44.89
2023-05-03T11:39:33.398Z,45.81
2023-05-03T11:42:07.967Z,43.47
2023-05-03T11:44:38.413Z,43.26
2023-05-03T11:47:09.676Z,45.12
2023-05-03T11:49:40.060Z,46.75
2023-05-03T11:52:10.338Z,43.63
2023-05-03T11:54:40.704Z,42.78
2023-05-03T11:57:15.007Z,46.14
2023-05-03T11:59:45.832Z,44.10
2023-05-03T12:02:16.148Z,43.42
2023-05-03T12:04:46.539Z,40.92
2023-05-03T12:07:19.591Z,42.96
2023-05-03T12:10:06.849Z,42.39
2023-05-03T12:12:47.085Z,44.76
2023-05-03T12:15:34.039Z,44.12
2023-05-03T12:18:11.478Z,44.28
2023-05-03T12:21:28.995Z,44.79
2023-05-03T12:23:29.910Z,42.08
2023-05-03T12:26:00.892Z,45.57
2023-05-03T12:28:31.526Z,45.50
2023-05-03T12:31:03.138Z,43.79
2023-05-03T12:33:38.164Z,42.53
2023-05-03T12:36:10.043Z,41.60
2023-05-03T12:38:43.281Z,43.14
2023-05-03T12:41:17.107Z,42.57
2023-05-03T12:44:00.428Z,43.25
2023-05-03T12:46:34.885Z,42.37
2023-05-03T12:49:07.950Z,40.98
2023-05-03T12:51:42.264Z,41.23
2023-05-03T12:54:11.891Z,41.15
2023-05-03T12:56:47.719Z,44.04
2023-05-03T12:59:39.121Z,43.96
2023-05-03T13:04:57.201Z,41.09
2023-05-03T13:07:32.121Z,40.24
2023-05-03T13:12:40.915Z,39.16
2023-05-03T13:15:11.609Z,39.50
2023-05-03T13:17:41.825Z,40.38
2023-05-03T13:20:13.927Z,39.59
2023-05-03T13:22:44.257Z,38.87
2023-05-03T13:25:13.409Z,41.25
2023-05-03T13:27:41.855Z,39.67
2023-05-03T13:30:11.029Z,37.48
2023-05-03T13:32:39.137Z,42.01
2023-05-03T13:35:09.750Z,40.08
2023-05-03T13:37:39.978Z,38.88
2023-05-03T13:40:11.467Z,37.23
2023-05-03T13:42:41.763Z,40.34
2023-05-03T13:45:13.688Z,37.61
2023-05-03T13:48:05.316Z,36.56
2023-05-03T13:50:34.008Z,36.80
2023-05-03T13:53:04.187Z,36.41
2023-05-03T13:55:34.373Z,37.12
2023-05-03T13:58:04.490Z,37.29
2023-05-03T14:00:34.621Z,35.59
2023-05-03T14:03:04.997Z,37.47
2023-05-03T14:05:35.916Z,36.24
2023-05-03T14:08:05.826Z,37.37
2023-05-03T14:10:36.468Z,35.48
2023-05-03T14:13:06.005Z,36.57
2023-05-03T14:15:45.436Z,34.61
2023-05-03T14:18:14.474Z,33.82
2023-05-03T14:20:42.455Z,34.69
2023-05-03T14:23:10.789Z,33.53
2023-05-03T14:25:38.942Z,36.01
2023-05-03T14:28:07.559Z,37.46
2023-05-03T14:30:36.547Z,35.42
2023-05-03T14:33:04.326Z,37.04
2023-05-03T14:35:32.795Z,34.64
2023-05-03T14:38:01.301Z,35.73
2023-05-03T14:40:29.747Z,34.08
2023-05-03T14:42:58.239Z,34.14
2023-05-03T14:45:26.878Z,34.30
2023-05-03T14:47:55.172Z,34.25
2023-05-03T14:50:23.880Z,34.07
2023-05-03T14:52:52.380Z,34.63
2023-05-03T14:55:20.809Z,38.95
2023-05-03T14:57:49.456Z,36.95
2023-05-03T15:00:18.557Z,36.13
2023-05-03T15:02:47.002Z,37.06
2023-05-03T15:05:15.126Z,35.59
2023-05-03T15:07:43.204Z,33.44
2023-05-03T15:10:11.738Z,33.31
2023-05-03T15:12:40.354Z,34.16
2023-05-03T15:15:10.367Z,33.49
2023-05-03T15:17:40.258Z,34.46
2023-05-03T15:20:10.612Z,35.64
2023-05-03T15:22:40.873Z,34.28
2023-05-03T15:25:11.251Z,35.58
2023-05-03T15:27:41.357Z,35.47
2023-05-03T15:30:12.488Z,33.49
2023-05-03T15:32:42.966Z,36.48
2023-05-03T15:35:13.338Z,31.97
2023-05-03T15:37:43.547Z,32.00
2023-05-03T15:40:13.967Z,31.18
2023-05-03T15:42:44.131Z,31.44
2023-05-03T15:45:15.581Z,32.23
2023-05-03T15:47:46.244Z,32.88
2023-05-03T15:50:16.567Z,32.95
2023-05-03T15:52:46.945Z,32.87
2023-05-03T15:55:19.466Z,32.14
2023-05-03T15:57:49.596Z,34.25
2023-05-03T16:00:20.438Z,34.63
2023-05-03T16:02:50.752Z,35.64
2023-05-03T16:05:21.027Z,34.12
2023-05-03T16:07:51.956Z,34.43
2023-05-03T16:10:24.734Z,35.13
2023-05-03T16:12:55.290Z,34.38
2023-05-03T16:15:25.481Z,36.45
2023-05-03T16:17:55.843Z,36.58
2023-05-03T16:20:26.120Z,38.23
2023-05-03T16:22:56.693Z,39.84
2023-05-03T16:25:29.082Z,40.51
2023-05-03T16:27:59.716Z,40.84
2023-05-03T16:30:30.118Z,41.46
2023-05-03T16:33:00.690Z,43.41
2023-05-03T16:35:31.137Z,43.91
2023-05-03T16:38:03.030Z,44.60
2023-05-03T16:40:32.664Z,44.72
2023-05-03T16:43:01.216Z,43.82
2023-05-03T16:45:31.421Z,43.01
2023-05-03T16:48:04.737Z,44.87
2023-05-03T16:50:37.768Z,46.14
2023-05-03T16:53:07.956Z,46.22
2023-05-03T16:55:38.088Z,45.51
2023-05-03T16:58:08.369Z,45.55
2023-05-03T17:00:38.782Z,46.45
2023-05-03T17:03:09.006Z,46.61
2023-05-03T17:05:39.434Z,46.85
2023-05-03T17:08:09.557Z,47.90
2023-05-03T17:10:39.664Z,47.60
2023-05-03T17:13:10.115Z,48.05
2023-05-03T17:15:40.300Z,47.87
2023-05-03T17:18:10.494Z,47.39
2023-05-03T17:20:40.711Z,49.13
2023-05-03T17:23:10.886Z,48.42
2023-05-03T17:25:42.754Z,48.41
2023-05-03T17:28:12.932Z,47.92
2023-05-03T17:30:43.119Z,47.85
2023-05-03T17:33:13.302Z,47.27
2023-05-03T17:35:44.554Z,47.80
2023-05-03T17:38:15.993Z,48.05
2023-05-03T17:40:46.563Z,49.92
2023-05-03T17:43:17.917Z,51.30
2023-05-03T17:45:48.242Z,52.19
2023-05-03T17:48:18.363Z,53.30
2023-05-03T17:50:58.940Z,54.33
2023-05-03T17:53:29.158Z,55.17
2023-05-03T17:55:59.345Z,57.56
2023-05-03T17:58:29.453Z,57.03
2023-05-03T18:00:59.591Z,56.99
2023-05-03T18:03:30.045Z,56.81
2023-05-03T18:06:00.202Z,56.74
2023-05-03T18:08:30.435Z,59.28
2023-05-03T18:11:01.611Z,58.18
2023-05-03T18:13:33.442Z,58.88
2023-05-03T18:16:08.558Z,60.96
2023-05-03T18:18:38.773Z,61.21
2023-05-03T18:21:11.848Z,61.47
2023-05-03T18:23:43.133Z,63.54
2023-05-03T18:26:14.561Z,64.15
2023-05-03T18:28:44.719Z,64.45
2023-05-03T18:31:14.869Z,64.91
2023-05-03T18:33:45.077Z,65.33
2023-05-03T18:36:15.742Z,65.25
2023-05-03T18:38:47.273Z,66.32
2023-05-03T18:41:17.700Z,66.84
2023-05-03T18:43:48.271Z,66.53
2023-05-03T18:46:20.468Z,66.95
2023-05-03T18:48:50.840Z,68.00
2023-05-03T18:51:20.949Z,68.92
2023-05-03T18:53:51.062Z,69.31
2023-05-03T18:56:21.607Z,69.48
2023-05-03T18:58:52.062Z,70.12
2023-05-03T19:01:20.166Z,71.22
2023-05-03T19:03:48.622Z,71.88
2023-05-03T19:06:16.956Z,73.89
2023-05-03T19:08:47.141Z,78.64
2023-05-03T19:11:17.481Z,81.83
2023-05-03T19:13:46.427Z,82.44
2023-05-03T19:16:17.682Z,83.99
2023-05-03T19:18:48.245Z,85.21
2023-05-03T19:21:19.737Z,86.15
2023-05-03T19:23:49.824Z,87.37
2023-05-03T19:26:20.004Z,88.78
2023-05-03T19:28:50.155Z,90.09
2023-05-03T19:31:20.390Z,90.58
2023-05-03T19:33:50.479Z,91.31
2023-05-03T19:36:20.678Z,92.17
2023-05-03T19:38:50.964Z,92.46
2023-05-03T19:41:21.464Z,93.27
2023-05-03T19:43:55.606Z,93.89
2023-05-03T19:46:25.791Z,94.15
2023-05-03T19:48:55.868Z,95.24
2023-05-03T19:51:26.619Z,96.24
2023-05-03T19:53:57.666Z,97.60
2023-05-03T19:56:28.030Z,99.19
2023-05-03T19:58:58.284Z,100.00
2023-05-03T20:01:29.332Z,100.00
2023-05-03T20:03:59.638Z,100.00
2023-05-03T20:06:29.918Z,100.00
2023-05-03T20:09:00.364Z,100.00
2023-05-03T20:11:30.553Z,100.00
2023-05-03T20:14:00.955Z,100.00
2023-05-03T20:16:33.644Z,100.00
2023-05-03T20:19:04.168Z,100.00
2023-05-03T20:21:34.384Z,100.00
2023-05-03T20:24:05.029Z,100.00
2023-05-03T20:26:32.980Z,100.00
2023-05-03T20:29:01.416Z,100.00
2023-05-03T20:31:29.798Z,100.00
2023-05-03T20:33:58.357Z,100.00
2023-05-03T20:36:26.727Z,100.00
2023-05-03T20:38:55.867Z,100.00
2023-05-03T20:41:24.332Z,100.00
2023-05-03T20:43:55.008Z,100.00
2023-05-03T20:46:23.502Z,100.00
2023-05-03T20:48:52.080Z,100.00
2023-05-03T20:51:20.445Z,100.00
2023-05-03T20:53:48.817Z,100.00
2023-05-03T20:56:17.674Z,100.00
2023-05-03T20:58:45.984Z,100.00
2023-05-03T21:01:14.526Z,100.00
2023-05-03T21:03:42.599Z,100.00
2023-05-03T21:06:10.813Z,100.00
2023-05-03T21:08:39.284Z,100.00
2023-05-03T21:11:08.552Z,100.00
2023-05-03T21:13:36.174Z,100.00
2023-05-03T21:16:08.079Z,100.00
2023-05-03T21:18:38.273Z,100.00
2023-05-03T21:21:08.468Z,100.00
2023-05-03T21:23:38.627Z,100.00
2023-05-03T21:26:08.901Z,100.00
2023-05-03T21:28:39.185Z,100.00
2023-05-03T21:31:09.767Z,100.00
2023-05-03T21:33:39.969Z,100.00
2023-05-03T21:36:10.268Z,100.00
2023-05-03T21:38:40.941Z,100.00
2023-05-03T21:41:11.365Z,100.00
2023-05-03T21:43:41.583Z,100.00
2023-05-03T21:46:11.841Z,100.00
2023-05-03T21:48:42.030Z,100.00
2023-05-03T21:51:25.163Z,100.00
2023-05-03T21:53:55.404Z,100.00
2023-05-03T21:56:25.612Z,100.00
2023-05-03T21:58:55.811Z,100.00
2023-05-03T22:01:26.183Z,100.00
2023-05-03T22:03:56.624Z,100.00
2023-05-03T22:06:27.174Z,100.00
2023-05-03T22:08:58.221Z,100.00
2023-05-03T22:11:28.979Z,100.00
2023-05-03T22:14:07.384Z,100.00
2023-05-03T22:16:42.258Z,100.00
2023-05-03T22:19:10.288Z,100.00
2023-05-03T22:21:38.007Z,100.00
2023-05-03T22:24:07.677Z,100.00
2023-05-03T22:26:34.913Z,100.00
2023-05-03T22:29:03.561Z,100.00
2023-05-03T22:31:32.285Z,100.00
2023-05-03T22:38:33.952Z,100.00
2023-05-03T22:41:04.090Z,100.00
2023-05-03T22:43:34.323Z,100.00
2023-05-03T22:46:04.935Z,100.00
2023-05-03T22:48:35.493Z,100.00
2023-05-03T22:51:06.335Z,100.00
2023-05-03T22:53:36.422Z,100.00
2023-05-03T22:56:07.376Z,100.00
2023-05-03T22:58:35.156Z,100.00
2023-05-03T23:01:09.689Z,100.00
2023-05-03T23:03:40.064Z,100.00
2023-05-03T23:06:08.867Z,100.00
2023-05-03T23:08:37.954Z,100.00
2023-05-03T23:11:08.491Z,100.00
2023-05-03T23:13:38.676Z,100.00
2023-05-03T23:16:09.332Z,100.00
2023-05-03T23:18:39.623Z,100.00
2023-05-03T23:21:08.030Z,100.00
2023-05-03T23:23:36.519Z,100.00
2023-05-03T23:26:04.983Z,100.00
2023-05-03T23:28:33.441Z,100.00
2023-05-03T23:31:01.674Z,100.00
2023-05-03T23:33:31.286Z,100.00
2023-05-03T23:35:58.686Z,100.00
2023-05-03T23:38:27.258Z,100.00
2023-05-03T23:40:55.455Z,100.00
2023-05-03T23:43:23.842Z,100.00
2023-05-03T23:45:52.286Z,100.00
2023-05-03T23:48:20.637Z,100.00
2023-05-03T23:50:49.112Z,100.00
2023-05-03T23:53:17.626Z,100.00
2023-05-03T23:55:47.991Z,100.00
2023-05-03T23:58:18.196Z,100.00
